EBFN

Koksijde Air Base Airport

Koksijde, Belgium
TAF EBFN 210841Z 2110/2119 07006KT 9999 FEW030 TEMPO 2110/2112 7000 BECMG 2117/2119 10006KT
Issued Valid From Valid To
Apr-21 @ 08:41 UTC
(an hour ago)
Apr-21 @ 10:00 UTC
(in 7 minutes)
Apr-21 @ 19:00 UTC
(in 9 hours)
Apr-21 @ 10:00 to Apr-21 @ 17:00
TAF EBFN 210841Z 2110/2119 07006KT 9999 FEW030
Wind Visibility Clouds
70° at 6 knots 10,000+ meters
  • Few at 3,000' AGL
Temporary Apr-21 @ 10:00 to Apr-21 @ 12:00
TEMPO 2110/2112 7000
Visibility
7,001 meters
Becoming Apr-21 @ 17:00 to Apr-21 @ 19:00
BECMG 2117/2119 10006KT
Wind Visibility Clouds
100° at 6 knots 10,000+ meters
  • Few at 3,000' AGL
TAF EBFN 210841Z 2110/2119 07006KT 9999 FEW030 TEMPO 2110/2112 7000 BECMG 2117/2119 10006KT
Issued Apr-21 @ 08:41 UTC
(an hour ago)
Valid From Apr-21 @ 10:00 UTC
(in 7 minutes)
Valid To Apr-21 @ 19:00 UTC
(in 9 hours)
Apr-21 @ 10:00 - Apr-21 @ 17:00
Wind Visibility
70° at 6 knots 10,000+ meters
Clouds
  • Few at 3,000' AGL
Temporary Apr-21 @ 10:00 - Apr-21 @ 12:00
Becoming Apr-21 @ 17:00 - Apr-21 @ 19:00
Wind Visibility
100° at 6 knots 10,000+ meters
Clouds
  • Few at 3,000' AGL